createdAt,value
2019-02-20T00:00:41.968Z,7.50
2019-02-20T00:01:41.933Z,7.51
2019-02-20T00:02:41.927Z,7.50
2019-02-20T00:03:41.914Z,7.50
2019-02-20T00:04:41.903Z,7.48
2019-02-20T00:05:41.890Z,7.53
2019-02-20T00:06:41.921Z,7.46
2019-02-20T00:07:41.870Z,7.47
2019-02-20T00:08:41.857Z,7.41
2019-02-20T00:09:41.870Z,7.51
2019-02-20T00:10:42.594Z,7.41
2019-02-20T00:11:41.825Z,7.48
2019-02-20T00:12:41.804Z,7.46
2019-02-20T00:13:41.793Z,7.51
2019-02-20T00:14:42.573Z,7.44
2019-02-20T00:15:42.583Z,7.43
2019-02-20T00:16:41.760Z,7.47
2019-02-20T00:17:41.761Z,7.47
2019-02-20T00:18:41.739Z,7.48
2019-02-20T00:19:41.728Z,7.48
2019-02-20T00:20:41.721Z,7.47
2019-02-20T00:21:41.742Z,7.47
2019-02-20T00:22:41.699Z,7.51
2019-02-20T00:23:41.714Z,7.47
2019-02-20T00:24:41.702Z,7.51
2019-02-20T00:25:41.665Z,7.55
2019-02-20T00:26:42.566Z,7.48
2019-02-20T00:27:41.656Z,7.48
2019-02-20T00:28:41.640Z,7.44
2019-02-20T00:29:41.620Z,7.50
2019-02-20T00:30:41.607Z,7.43
2019-02-20T00:31:41.620Z,7.46
2019-02-20T00:32:41.628Z,7.55
2019-02-20T00:33:41.580Z,7.48
2019-02-20T00:34:41.566Z,7.51
2019-02-20T00:35:41.597Z,7.48
2019-02-20T00:36:41.547Z,7.51
2019-02-20T00:37:41.537Z,7.43
2019-02-20T00:38:41.535Z,7.48
2019-02-20T00:39:41.511Z,7.47
2019-02-20T00:40:41.505Z,7.48
2019-02-20T00:41:41.519Z,7.55
2019-02-20T00:42:41.555Z,7.47
2019-02-20T00:43:41.463Z,7.44
2019-02-20T00:44:43.111Z,7.44
2019-02-20T00:45:41.440Z,7.41
2019-02-20T00:46:41.439Z,7.37
2019-02-20T00:47:40.425Z,7.44
2019-02-20T00:48:41.410Z,7.39
2019-02-20T00:49:42.059Z,7.43
2019-02-20T00:50:41.398Z,7.43
2019-02-20T00:51:41.377Z,7.48
2019-02-20T00:52:49.675Z,7.48
2019-02-20T00:53:41.355Z,7.55
2019-02-20T00:54:41.359Z,7.50
2019-02-20T00:55:41.422Z,7.51
2019-02-20T00:56:41.324Z,7.64
2019-02-20T00:57:41.315Z,7.53
2019-02-20T00:58:41.306Z,7.55
2019-02-20T01:00:40.286Z,7.56
2019-02-20T01:01:41.282Z,7.50
2019-02-20T01:02:44.061Z,7.62
2019-02-20T01:03:41.248Z,7.53
2019-02-20T01:04:41.239Z,7.56
2019-02-20T01:05:41.227Z,7.62
2019-02-20T01:06:41.216Z,7.55
2019-02-20T01:07:41.250Z,7.64
2019-02-20T01:09:40.183Z,7.51
2019-02-20T01:10:41.175Z,7.50
2019-02-20T01:11:41.173Z,7.40
2019-02-20T01:12:42.073Z,7.43
2019-02-20T01:13:41.603Z,7.37
2019-02-20T01:14:49.104Z,7.43
2019-02-20T01:15:44.062Z,7.36
2019-02-20T01:17:40.102Z,7.39
2019-02-20T01:18:51.602Z,7.44
2019-02-20T01:19:41.081Z,7.41
2019-02-20T01:20:41.063Z,7.29
2019-02-20T01:21:41.055Z,7.25
2019-02-20T01:22:41.041Z,7.32
2019-02-20T01:23:41.032Z,7.33
2019-02-20T01:26:39.998Z,7.31
2019-02-20T01:27:40.985Z,7.28
2019-02-20T01:28:40.975Z,7.26
2019-02-20T01:29:40.991Z,7.31
2019-02-20T01:30:40.957Z,7.28
2019-02-20T01:31:40.933Z,7.39
2019-02-20T01:32:40.923Z,7.33
2019-02-20T01:33:41.548Z,7.28
2019-02-20T01:34:41.549Z,7.31
2019-02-20T01:35:40.937Z,7.28
2019-02-20T01:36:40.879Z,7.22
2019-02-20T01:37:40.873Z,7.26
2019-02-20T01:38:41.550Z,7.28
2019-02-20T01:39:40.851Z,7.22
2019-02-20T01:40:40.843Z,7.33
2019-02-20T01:41:40.857Z,7.28
2019-02-20T01:42:43.547Z,7.32
2019-02-20T01:43:41.549Z,7.19
2019-02-20T01:44:40.793Z,7.19
2019-02-20T01:45:40.792Z,7.21
2019-02-20T01:46:41.545Z,7.23
2019-02-20T01:47:40.763Z,7.19
2019-02-20T01:48:40.755Z,7.28
2019-02-20T01:49:40.744Z,7.21
2019-02-20T01:50:40.741Z,7.23
2019-02-20T01:51:40.722Z,7.15
2019-02-20T01:52:40.708Z,7.19
2019-02-20T01:53:40.698Z,7.18
2019-02-20T01:54:40.687Z,7.15
2019-02-20T01:55:40.686Z,7.18
2019-02-20T01:56:40.679Z,7.15
2019-02-20T01:57:40.658Z,7.13
2019-02-20T01:58:40.639Z,7.14
2019-02-20T01:59:40.640Z,7.08
2019-02-20T02:00:40.635Z,7.05
2019-02-20T02:01:40.641Z,7.10
2019-02-20T02:02:40.604Z,7.07
2019-02-20T02:03:40.598Z,7.03
2019-02-20T02:04:40.582Z,6.96
2019-02-20T02:05:40.583Z,6.89
2019-02-20T02:06:40.555Z,6.95
2019-02-20T02:07:41.043Z,7.01
2019-02-20T02:08:40.539Z,6.90
2019-02-20T02:09:40.522Z,6.89
2019-02-20T02:10:40.520Z,6.90
2019-02-20T02:11:41.038Z,6.87
2019-02-20T02:12:40.489Z,6.86
2019-02-20T02:13:41.041Z,6.86
2019-02-20T02:14:40.469Z,6.86
2019-02-20T02:15:40.460Z,6.96
2019-02-20T02:16:40.452Z,6.90
2019-02-20T02:17:40.437Z,6.86
2019-02-20T02:18:40.418Z,6.86
2019-02-20T02:19:40.446Z,6.83
2019-02-20T02:20:40.428Z,6.83
2019-02-20T02:21:40.391Z,6.72
2019-02-20T02:22:40.389Z,6.77
2019-02-20T02:23:40.374Z,6.80
2019-02-20T02:24:40.363Z,6.71
2019-02-20T02:25:43.034Z,6.77
2019-02-20T02:26:40.335Z,6.72
2019-02-20T02:27:43.034Z,6.71
2019-02-20T02:28:40.313Z,6.75
2019-02-20T02:29:40.302Z,6.82
2019-02-20T02:31:39.281Z,6.87
2019-02-20T02:33:39.263Z,6.83
2019-02-20T02:34:40.254Z,6.86
2019-02-20T02:35:40.259Z,6.92
2019-02-20T02:36:40.226Z,6.83
2019-02-20T02:37:40.218Z,6.80
2019-02-20T02:38:41.027Z,6.75
2019-02-20T02:39:40.192Z,6.83
2019-02-20T02:40:40.202Z,6.74
2019-02-20T02:41:40.177Z,6.70
2019-02-20T02:42:43.035Z,6.70
2019-02-20T02:43:40.154Z,6.70
2019-02-20T02:44:40.153Z,6.67
2019-02-20T02:45:40.152Z,6.70
2019-02-20T02:46:40.118Z,6.67
2019-02-20T02:47:40.109Z,6.57
2019-02-20T02:48:40.097Z,6.70
2019-02-20T02:49:40.118Z,6.74
2019-02-20T02:50:40.089Z,6.62
2019-02-20T02:51:40.068Z,6.64
2019-02-20T02:52:40.052Z,6.57
2019-02-20T02:53:40.047Z,6.52
2019-02-20T02:54:40.032Z,6.41
2019-02-20T02:55:40.023Z,6.46
2019-02-20T02:56:40.029Z,6.39
2019-02-20T02:57:39.994Z,6.41
2019-02-20T02:58:39.982Z,6.44
2019-02-20T02:59:39.974Z,6.38
2019-02-20T03:00:39.971Z,6.47
2019-02-20T03:02:38.939Z,6.39
2019-02-20T03:03:39.932Z,6.34
2019-02-20T03:04:39.918Z,6.29
2019-02-20T03:05:39.909Z,6.25
2019-02-20T03:06:39.918Z,6.26
2019-02-20T03:07:39.911Z,6.28
2019-02-20T03:08:40.567Z,6.29
2019-02-20T03:09:39.861Z,6.19
2019-02-20T03:10:39.865Z,6.25
2019-02-20T03:11:39.878Z,6.22
2019-02-20T03:12:39.845Z,6.29
2019-02-20T03:13:40.519Z,6.28
2019-02-20T03:14:39.808Z,6.28
2019-02-20T03:15:39.804Z,6.28
2019-02-20T03:16:39.826Z,6.35
2019-02-20T03:17:40.526Z,6.25
2019-02-20T03:18:42.519Z,6.28
2019-02-20T03:19:39.753Z,6.34
2019-02-20T03:20:39.751Z,6.34
2019-02-20T03:21:42.518Z,6.31
2019-02-20T03:22:39.729Z,6.34
2019-02-20T03:23:40.487Z,6.44
2019-02-20T03:24:39.718Z,6.44
2019-02-20T03:25:39.691Z,6.34
2019-02-20T03:26:39.717Z,6.41
2019-02-20T03:27:39.665Z,6.46
2019-02-20T03:28:40.251Z,6.44
2019-02-20T03:29:38.662Z,6.39
2019-02-20T03:30:39.639Z,6.41
2019-02-20T03:31:39.668Z,6.39
2019-02-20T03:32:39.619Z,6.35
2019-02-20T03:33:39.617Z,6.39
2019-02-20T03:34:39.607Z,6.39
2019-02-20T03:35:39.580Z,6.39
2019-02-20T03:36:39.602Z,6.29
2019-02-20T03:37:39.568Z,6.29
2019-02-20T03:38:39.546Z,6.25
2019-02-20T03:39:39.536Z,6.26
2019-02-20T03:40:39.524Z,6.22
2019-02-20T03:41:39.542Z,6.22
2019-02-20T03:42:39.503Z,6.32
2019-02-20T03:43:39.508Z,6.28
2019-02-20T03:44:39.485Z,6.34
2019-02-20T03:45:39.481Z,6.26
2019-02-20T03:46:39.463Z,6.26
2019-02-20T03:47:39.451Z,6.31
2019-02-20T03:48:39.438Z,6.22
2019-02-20T03:49:39.438Z,6.26
2019-02-20T03:50:39.416Z,6.32
2019-02-20T03:51:39.419Z,6.20
2019-02-20T03:52:39.409Z,6.22
2019-02-20T03:53:39.376Z,6.29
2019-02-20T03:54:39.369Z,6.29
2019-02-20T03:55:39.368Z,6.28
2019-02-20T03:56:39.354Z,6.19
2019-02-20T03:57:39.343Z,6.28
2019-02-20T03:58:39.334Z,6.31
2019-02-20T03:59:39.314Z,6.22
2019-02-20T04:00:39.330Z,6.38
2019-02-20T04:01:39.296Z,6.28
2019-02-20T04:02:39.284Z,6.28
2019-02-20T04:03:39.299Z,6.26
2019-02-20T04:04:39.266Z,6.28
2019-02-20T04:05:39.284Z,6.25
2019-02-20T04:06:39.304Z,6.20
2019-02-20T04:07:39.232Z,6.16
2019-02-20T04:08:39.224Z,6.34
2019-02-20T04:09:39.211Z,6.28
2019-02-20T04:10:39.204Z,6.17
2019-02-20T04:11:39.208Z,6.28
2019-02-20T04:12:39.178Z,6.19
2019-02-20T04:13:42.004Z,6.25
2019-02-20T04:14:39.159Z,6.20
2019-02-20T04:15:39.141Z,6.19
2019-02-20T04:16:39.205Z,6.25
2019-02-20T04:17:39.126Z,6.16
2019-02-20T04:18:39.124Z,6.25
2019-02-20T04:19:39.098Z,6.22
2019-02-20T04:20:39.089Z,6.17
2019-02-20T04:21:39.105Z,6.20
2019-02-20T04:22:39.058Z,6.10
2019-02-20T04:23:39.079Z,6.06
2019-02-20T04:24:39.044Z,5.99
2019-02-20T04:25:39.034Z,5.98
2019-02-20T04:26:39.023Z,6.01
2019-02-20T04:27:39.052Z,5.92
2019-02-20T04:28:39.505Z,5.95
2019-02-20T04:29:39.498Z,5.99
2019-02-20T04:30:39.016Z,5.97
2019-02-20T04:31:38.973Z,6.07
2019-02-20T04:32:38.959Z,6.02
2019-02-20T04:33:38.017Z,5.98
2019-02-20T04:34:38.933Z,5.98
2019-02-20T04:35:38.921Z,6.01
2019-02-20T04:36:38.936Z,6.05
2019-02-20T04:37:38.905Z,6.09
2019-02-20T04:38:38.896Z,5.95
2019-02-20T04:39:38.872Z,5.92
2019-02-20T04:40:38.876Z,6.10
2019-02-20T04:41:38.884Z,6.06
2019-02-20T04:42:38.844Z,5.98
2019-02-20T04:43:38.834Z,5.97
2019-02-20T04:44:38.863Z,6.01
2019-02-20T04:45:38.807Z,6.05
2019-02-20T04:46:38.824Z,5.99
2019-02-20T04:47:38.793Z,5.95
2019-02-20T04:48:38.792Z,5.94
2019-02-20T04:49:38.772Z,5.98
2019-02-20T04:51:37.781Z,5.94
2019-02-20T04:52:38.746Z,5.92
2019-02-20T04:53:38.715Z,5.94
2019-02-20T04:54:38.708Z,5.92
2019-02-20T04:55:38.707Z,5.87
2019-02-20T04:56:38.713Z,5.91
2019-02-20T04:57:38.679Z,5.92
2019-02-20T04:58:38.661Z,5.92
2019-02-20T04:59:38.656Z,5.84
2019-02-20T05:00:38.703Z,5.94
2019-02-20T05:01:38.667Z,5.87
2019-02-20T05:02:38.626Z,5.94
2019-02-20T05:03:38.620Z,5.90
2019-02-20T05:04:38.609Z,5.91
2019-02-20T05:05:38.595Z,5.90
2019-02-20T05:07:37.601Z,5.92
2019-02-20T05:08:38.577Z,5.95
2019-02-20T05:09:39.698Z,5.91
2019-02-20T05:10:38.540Z,5.92
2019-02-20T05:11:38.549Z,5.94
2019-02-20T05:12:38.512Z,5.92
2019-02-20T05:13:38.508Z,5.90
2019-02-20T05:14:38.514Z,5.94
2019-02-20T05:15:38.480Z,5.81
2019-02-20T05:16:38.512Z,5.84
2019-02-20T05:17:38.463Z,5.88
2019-02-20T05:18:38.983Z,5.90
2019-02-20T05:19:38.440Z,5.90
2019-02-20T05:20:37.425Z,5.81
2019-02-20T05:21:37.415Z,5.79
2019-02-20T05:22:38.445Z,5.84
2019-02-20T05:23:38.393Z,5.83
2019-02-20T05:24:38.379Z,5.80
2019-02-20T05:25:38.371Z,5.79
2019-02-20T05:26:38.362Z,5.92
2019-02-20T05:27:38.989Z,5.84
2019-02-20T05:28:38.346Z,5.90
2019-02-20T05:29:38.976Z,5.91
2019-02-20T05:30:38.313Z,5.88
2019-02-20T05:31:38.985Z,5.90
2019-02-20T05:32:38.329Z,5.91
2019-02-20T05:33:38.290Z,5.91
2019-02-20T05:34:38.274Z,5.90
2019-02-20T05:35:38.261Z,5.98
2019-02-20T05:36:38.250Z,5.95
2019-02-20T05:37:39.711Z,5.95
2019-02-20T05:38:38.238Z,6.01
2019-02-20T05:39:38.214Z,5.94
2019-02-20T05:40:38.198Z,6.01
2019-02-20T05:41:38.193Z,6.06
2019-02-20T05:42:38.225Z,6.09
2019-02-20T05:43:38.176Z,6.13
2019-02-20T05:44:38.167Z,6.02
2019-02-20T05:45:38.163Z,6.16
2019-02-20T05:46:38.139Z,6.16
2019-02-20T05:47:38.136Z,6.10
2019-02-20T05:48:38.127Z,6.20
2019-02-20T05:49:38.115Z,6.13
2019-02-20T05:50:38.097Z,6.20
2019-02-20T05:51:38.081Z,6.26
2019-02-20T05:52:38.077Z,6.22
2019-02-20T05:53:38.092Z,6.28
2019-02-20T05:54:38.085Z,6.26
2019-02-20T05:55:38.974Z,6.20
2019-02-20T05:56:38.033Z,6.35
2019-02-20T05:57:38.018Z,6.31
2019-02-20T05:58:38.005Z,6.31
2019-02-20T05:59:38.022Z,6.36
2019-02-20T06:00:37.985Z,6.26
2019-02-20T06:01:37.977Z,6.31
2019-02-20T06:02:37.971Z,6.41
2019-02-20T06:03:37.952Z,6.38
2019-02-20T06:04:37.988Z,6.39
2019-02-20T06:05:37.942Z,6.41
2019-02-20T06:06:37.922Z,6.41
2019-02-20T06:07:37.905Z,6.39
2019-02-20T06:08:37.914Z,6.49
2019-02-20T06:10:36.877Z,6.43
2019-02-20T06:11:37.887Z,6.52
2019-02-20T06:12:37.855Z,6.53
2019-02-20T06:13:37.849Z,6.54
2019-02-20T06:14:37.833Z,6.62
2019-02-20T06:15:37.863Z,6.50
2019-02-20T06:16:37.819Z,6.60
2019-02-20T06:17:40.464Z,6.60
2019-02-20T06:18:37.794Z,6.59
2019-02-20T06:19:38.459Z,6.59
2019-02-20T06:20:40.468Z,6.64
2019-02-20T06:21:37.757Z,6.74
2019-02-20T06:22:37.773Z,6.60
2019-02-20T06:23:37.736Z,6.67
2019-02-20T06:25:36.710Z,6.74
2019-02-20T06:26:37.742Z,6.70
2019-02-20T06:27:37.690Z,6.78
2019-02-20T06:28:37.720Z,6.75
2019-02-20T06:29:37.665Z,6.67
2019-02-20T06:30:37.663Z,6.74
2019-02-20T06:31:42.457Z,6.83
2019-02-20T06:32:37.642Z,6.87
2019-02-20T06:33:37.630Z,6.85
2019-02-20T06:34:37.625Z,6.87
2019-02-20T06:35:37.605Z,6.86
2019-02-20T06:36:37.621Z,6.89
2019-02-20T06:37:37.596Z,6.93
2019-02-20T06:38:37.565Z,6.90
2019-02-20T06:39:37.561Z,6.90
2019-02-20T06:40:37.557Z,6.93
2019-02-20T06:41:39.360Z,6.95
2019-02-20T06:42:40.470Z,6.89
2019-02-20T06:43:37.521Z,6.90
2019-02-20T06:44:37.503Z,6.86
2019-02-20T06:45:40.462Z,6.87
2019-02-20T06:46:39.953Z,6.87
2019-02-20T06:47:37.469Z,6.96
2019-02-20T06:48:37.483Z,6.95
2019-02-20T06:49:37.474Z,7.01
2019-02-20T06:50:37.444Z,7.05
2019-02-20T06:51:37.425Z,7.01
2019-02-20T06:52:37.421Z,6.96
2019-02-20T06:53:37.410Z,7.04
2019-02-20T06:54:37.433Z,7.05
2019-02-20T06:55:37.383Z,7.07
2019-02-20T06:56:37.379Z,7.03
2019-02-20T06:57:37.396Z,7.05
2019-02-20T06:58:37.365Z,7.05
2019-02-20T06:59:37.375Z,7.04
2019-02-20T07:00:37.334Z,7.15
2019-02-20T07:01:37.328Z,7.19
2019-02-20T07:02:37.311Z,7.18
2019-02-20T07:03:37.302Z,7.19
2019-02-20T07:04:37.296Z,7.19
2019-02-20T07:05:37.317Z,7.13
2019-02-20T07:06:37.265Z,7.19
2019-02-20T07:07:37.954Z,7.26
2019-02-20T07:08:37.280Z,7.21
2019-02-20T07:09:39.953Z,7.26
2019-02-20T07:10:39.965Z,7.19
2019-02-20T07:11:37.251Z,7.14
2019-02-20T07:12:37.199Z,7.19
2019-02-20T07:13:37.212Z,7.22
2019-02-20T07:14:37.176Z,7.26
2019-02-20T07:15:39.947Z,7.29
2019-02-20T07:16:37.162Z,7.28
2019-02-20T07:17:37.169Z,7.33
2019-02-20T07:18:37.141Z,7.29
2019-02-20T07:19:37.122Z,7.28
2019-02-20T07:20:37.113Z,7.31
2019-02-20T07:21:36.991Z,7.33
2019-02-20T07:22:37.092Z,7.29
2019-02-20T07:23:37.072Z,7.36
2019-02-20T07:24:37.111Z,7.44
2019-02-20T07:25:39.950Z,7.40
2019-02-20T07:26:37.046Z,7.39
2019-02-20T07:27:37.051Z,7.37
2019-02-20T07:28:37.043Z,7.39
2019-02-20T07:29:37.042Z,7.44
2019-02-20T07:30:37.064Z,7.48
2019-02-20T07:31:37.945Z,7.48
2019-02-20T07:32:37.043Z,7.46
2019-02-20T07:33:36.975Z,7.53
2019-02-20T07:34:36.992Z,7.59
2019-02-20T07:35:36.987Z,7.62
2019-02-20T07:36:36.932Z,7.61
2019-02-20T07:37:36.928Z,7.72
2019-02-20T07:39:35.897Z,7.74
2019-02-20T07:40:36.895Z,7.80
2019-02-20T07:41:36.925Z,7.84
2019-02-20T07:42:36.871Z,7.78
2019-02-20T07:43:36.859Z,7.80
2019-02-20T07:44:36.849Z,7.74
2019-02-20T07:45:36.855Z,7.74
2019-02-20T07:46:36.826Z,7.77
2019-02-20T07:47:36.848Z,7.90
2019-02-20T07:48:36.803Z,7.85
2019-02-20T07:49:36.785Z,7.84
2019-02-20T07:50:36.812Z,7.91
2019-02-20T07:51:36.769Z,7.84
2019-02-20T07:52:36.757Z,7.95
2019-02-20T07:53:36.763Z,7.81
2019-02-20T07:54:36.741Z,7.87
2019-02-20T07:55:35.793Z,7.85
2019-02-20T07:56:35.728Z,7.85
2019-02-20T07:57:36.727Z,7.91
2019-02-20T07:58:36.694Z,7.93
2019-02-20T07:59:36.704Z,7.91
2019-02-20T08:00:36.677Z,7.88
2019-02-20T08:01:35.659Z,7.91
2019-02-20T08:02:36.679Z,7.90
2019-02-20T08:03:36.682Z,7.93
2019-02-20T08:04:36.655Z,7.99
2019-02-20T08:05:36.614Z,8.01
2019-02-20T08:06:36.602Z,8.09
2019-02-20T08:07:36.590Z,8.08
2019-02-20T08:08:35.607Z,8.13
2019-02-20T08:09:36.578Z,8.14
2019-02-20T08:10:36.597Z,8.11
2019-02-20T08:11:36.543Z,8.14
2019-02-20T08:12:35.539Z,8.13
2019-02-20T08:13:39.384Z,8.13
2019-02-20T08:14:38.507Z,8.23
2019-02-20T08:15:35.542Z,8.13
2019-02-20T08:16:35.491Z,8.28
2019-02-20T08:17:36.496Z,8.24
2019-02-20T08:18:36.467Z,8.24
2019-02-20T08:19:36.458Z,8.26
2019-02-20T08:20:36.469Z,8.21
2019-02-20T08:21:36.457Z,8.21
2019-02-20T08:22:36.425Z,8.20
2019-02-20T08:23:36.408Z,8.28
2019-02-20T08:24:36.405Z,8.14
2019-02-20T08:25:36.387Z,8.23
2019-02-20T08:26:36.395Z,8.18
2019-02-20T08:27:35.369Z,8.20
2019-02-20T08:28:36.358Z,8.13
2019-02-20T08:29:36.343Z,8.09
2019-02-20T08:30:36.334Z,8.20
2019-02-20T08:31:35.355Z,8.20
2019-02-20T08:32:36.302Z,8.31
2019-02-20T08:33:35.303Z,8.34
2019-02-20T08:34:36.331Z,8.34
2019-02-20T08:35:35.490Z,8.35
2019-02-20T08:36:36.297Z,8.35
2019-02-20T08:37:37.927Z,8.36
2019-02-20T08:38:36.237Z,8.34
2019-02-20T08:39:35.231Z,8.32
2019-02-20T08:40:36.226Z,8.34
2019-02-20T08:41:36.232Z,8.35
2019-02-20T08:42:35.242Z,8.24
2019-02-20T08:43:36.191Z,8.31
2019-02-20T08:44:36.177Z,8.36
2019-02-20T08:45:36.165Z,8.39
2019-02-20T08:46:36.192Z,8.39
2019-02-20T08:47:35.143Z,8.34
2019-02-20T08:48:35.147Z,8.28
2019-02-20T08:49:36.121Z,8.20
2019-02-20T08:50:36.147Z,8.27
2019-02-20T08:52:35.117Z,8.26
2019-02-20T08:53:36.070Z,8.17
2019-02-20T08:54:36.060Z,8.24
2019-02-20T08:55:36.057Z,8.20
2019-02-20T08:56:36.068Z,8.23
2019-02-20T08:58:35.033Z,8.27
2019-02-20T08:59:38.918Z,8.34
2019-02-20T09:00:35.999Z,8.36
2019-02-20T09:01:35.028Z,8.39
2019-02-20T09:02:34.971Z,8.32
2019-02-20T09:03:36.009Z,8.35
2019-02-20T09:04:35.966Z,8.46
2019-02-20T09:05:35.943Z,8.54
2019-02-20T09:06:34.973Z,8.45
2019-02-20T09:07:35.930Z,8.45
2019-02-20T09:08:35.943Z,8.46
2019-02-20T09:09:36.414Z,8.38
2019-02-20T09:10:35.913Z,8.35
2019-02-20T09:11:35.870Z,8.50
2019-02-20T09:12:35.864Z,8.41
2019-02-20T09:13:35.891Z,8.49
2019-02-20T09:14:34.838Z,8.38
2019-02-20T09:15:35.866Z,8.36
2019-02-20T09:16:35.812Z,8.38
2019-02-20T09:17:35.807Z,8.36
2019-02-20T09:18:34.796Z,8.36
2019-02-20T09:19:35.786Z,8.38
2019-02-20T09:20:35.806Z,8.44
2019-02-20T09:21:35.768Z,8.49
2019-02-20T09:22:35.747Z,8.49
2019-02-20T09:23:34.743Z,8.57
2019-02-20T09:24:35.759Z,8.61
2019-02-20T09:25:41.605Z,8.66
2019-02-20T09:26:36.411Z,8.57
2019-02-20T09:27:36.410Z,8.56
2019-02-20T09:28:37.195Z,8.57
2019-02-20T09:29:35.697Z,8.50
2019-02-20T09:30:35.669Z,8.59
2019-02-20T09:31:35.649Z,8.60
2019-02-20T09:32:34.638Z,8.61
2019-02-20T09:33:35.665Z,8.57
2019-02-20T09:34:34.634Z,8.61
2019-02-20T09:35:35.609Z,8.66
2019-02-20T09:36:34.596Z,8.64
2019-02-20T09:37:35.581Z,8.61
2019-02-20T09:38:35.569Z,8.61
2019-02-20T09:39:35.410Z,8.66
2019-02-20T09:40:36.687Z,8.77
2019-02-20T09:41:36.409Z,8.77
2019-02-20T09:42:34.523Z,8.66
2019-02-20T09:43:35.514Z,8.79
2019-02-20T09:44:35.558Z,8.79
2019-02-20T09:45:42.254Z,8.82
2019-02-20T09:46:35.480Z,8.90
2019-02-20T09:47:35.476Z,8.92
2019-02-20T09:48:34.466Z,8.81
2019-02-20T09:49:35.449Z,8.90
2019-02-20T09:50:34.467Z,8.95
2019-02-20T09:51:35.426Z,9.08
2019-02-20T09:52:35.406Z,8.99
2019-02-20T09:53:35.400Z,9.02
2019-02-20T09:54:35.387Z,9.02
2019-02-20T09:55:35.405Z,9.03
2019-02-20T09:56:35.392Z,8.99
2019-02-20T09:57:35.361Z,9.02
2019-02-20T09:58:35.355Z,9.03
2019-02-20T09:59:35.334Z,9.03
2019-02-20T10:00:35.323Z,9.02
2019-02-20T10:01:35.328Z,9.12
2019-02-20T10:02:35.310Z,9.02
2019-02-20T10:03:34.292Z,9.11
2019-02-20T10:04:35.280Z,9.09
2019-02-20T10:05:35.272Z,9.02
2019-02-20T10:06:34.259Z,9.12
2019-02-20T10:07:34.271Z,9.03
2019-02-20T10:08:35.236Z,9.09
2019-02-20T10:09:36.684Z,9.05
2019-02-20T10:10:34.212Z,9.09
2019-02-20T10:11:34.209Z,9.03
2019-02-20T10:12:35.241Z,9.09
2019-02-20T10:13:35.182Z,9.00
2019-02-20T10:14:35.164Z,9.13
2019-02-20T10:15:34.157Z,9.05
2019-02-20T10:16:34.193Z,9.22
2019-02-20T10:17:35.141Z,9.26
2019-02-20T10:18:35.116Z,9.30
2019-02-20T10:19:34.118Z,9.27
2019-02-20T10:20:35.156Z,9.24
2019-02-20T10:21:35.096Z,9.22
2019-02-20T10:22:35.079Z,9.22
2019-02-20T10:23:34.083Z,9.34
2019-02-20T10:24:37.897Z,9.30
2019-02-20T10:25:35.048Z,9.31
2019-02-20T10:26:35.890Z,9.33
2019-02-20T10:27:35.024Z,9.29
2019-02-20T10:28:35.008Z,9.30
2019-02-20T10:29:35.010Z,9.31
2019-02-20T10:30:34.994Z,9.44
2019-02-20T10:31:35.012Z,9.33
2019-02-20T10:32:34.972Z,9.39
2019-02-20T10:33:34.971Z,9.42
2019-02-20T10:34:33.951Z,9.47
2019-02-20T10:35:35.946Z,9.45
2019-02-20T10:36:34.927Z,9.48
2019-02-20T10:37:34.907Z,9.48
2019-02-20T10:38:34.908Z,9.47
2019-02-20T10:39:34.901Z,9.40
2019-02-20T10:40:34.938Z,9.51
2019-02-20T10:41:34.869Z,9.47
2019-02-20T10:42:33.862Z,9.45
2019-02-20T10:43:33.855Z,9.47
2019-02-20T10:44:34.845Z,9.48
2019-02-20T10:45:33.830Z,9.47
2019-02-20T10:46:33.858Z,9.45
2019-02-20T10:47:34.803Z,9.47
2019-02-20T10:48:34.798Z,9.47
2019-02-20T10:49:34.781Z,9.48
2019-02-20T10:50:33.769Z,9.55
2019-02-20T10:51:34.844Z,9.56
2019-02-20T10:52:34.756Z,9.66
2019-02-20T10:53:33.740Z,9.63
2019-02-20T10:54:34.721Z,9.64
2019-02-20T10:55:34.715Z,9.72
2019-02-20T10:56:34.723Z,9.72
2019-02-20T10:57:34.721Z,9.69
2019-02-20T10:58:34.697Z,9.67
2019-02-20T10:59:34.694Z,9.85
2019-02-20T11:00:34.656Z,9.84
2019-02-20T11:01:34.652Z,9.84
2019-02-20T11:02:34.642Z,9.81
2019-02-20T11:03:33.626Z,9.84
2019-02-20T11:04:33.642Z,9.82
2019-02-20T11:05:34.606Z,9.92
2019-02-20T11:06:35.982Z,9.97
2019-02-20T11:07:35.398Z,9.95
2019-02-20T11:08:34.569Z,10.07
2019-02-20T11:09:34.591Z,10.06
2019-02-20T11:10:34.547Z,10.06
2019-02-20T11:11:34.543Z,10.02
2019-02-20T11:12:34.528Z,10.07
2019-02-20T11:13:34.514Z,9.97
2019-02-20T11:14:34.505Z,10.10
2019-02-20T11:15:34.564Z,10.10
2019-02-20T11:16:33.521Z,10.10
2019-02-20T11:17:34.472Z,10.20
2019-02-20T11:18:33.463Z,10.24
2019-02-20T11:19:34.456Z,10.23
2019-02-20T11:20:34.439Z,10.27
2019-02-20T11:21:34.480Z,10.31
2019-02-20T11:22:34.410Z,10.38
2019-02-20T11:23:34.404Z,10.42
2019-02-20T11:24:33.395Z,10.46
2019-02-20T11:25:33.380Z,10.34
2019-02-20T11:26:43.313Z,10.42
2019-02-20T11:27:34.353Z,10.33
2019-02-20T11:28:34.353Z,10.31
2019-02-20T11:29:34.335Z,10.31
2019-02-20T11:30:34.324Z,10.34
2019-02-20T11:31:33.318Z,10.25
2019-02-20T11:32:33.459Z,10.38
2019-02-20T11:33:35.172Z,10.33
2019-02-20T11:34:35.873Z,10.39
2019-02-20T11:35:34.273Z,10.34
2019-02-20T11:36:34.261Z,10.30
2019-02-20T11:37:34.271Z,10.48
2019-02-20T11:38:34.238Z,10.51
2019-02-20T11:39:37.644Z,10.45
2019-02-20T11:40:34.232Z,10.42
2019-02-20T11:41:34.208Z,10.51
2019-02-20T11:42:34.204Z,10.55
2019-02-20T11:43:34.217Z,10.58
2019-02-20T11:44:34.178Z,10.48
2019-02-20T11:45:33.159Z,10.41
2019-02-20T11:46:34.145Z,10.49
2019-02-20T11:47:34.167Z,10.38
2019-02-20T11:48:34.138Z,10.49
2019-02-20T11:49:34.118Z,10.48
2019-02-20T11:50:34.118Z,10.51
2019-02-20T11:51:34.134Z,10.49
2019-02-20T11:52:38.432Z,10.46
2019-02-20T11:53:37.161Z,10.38
2019-02-20T11:54:34.064Z,10.46
2019-02-20T11:55:34.069Z,10.46
2019-02-20T11:56:34.041Z,10.39
2019-02-20T11:57:34.032Z,10.39
2019-02-20T11:58:34.055Z,10.45
2019-02-20T11:59:33.014Z,10.30
2019-02-20T12:00:33.992Z,10.34
2019-02-20T12:01:33.983Z,10.42
2019-02-20T12:02:37.555Z,10.48
2019-02-20T12:03:33.976Z,10.43
2019-02-20T12:04:33.978Z,10.38
2019-02-20T12:06:32.929Z,10.48
2019-02-20T12:07:33.408Z,10.42
2019-02-20T12:08:33.902Z,10.48
2019-02-20T12:09:32.893Z,10.41
2019-02-20T12:10:33.887Z,10.48
2019-02-20T12:11:33.873Z,10.39
2019-02-20T12:12:33.916Z,10.48
2019-02-20T12:13:32.858Z,10.48
2019-02-20T12:14:33.837Z,10.51
2019-02-20T12:15:33.826Z,10.57
2019-02-20T12:16:33.815Z,10.59
2019-02-20T12:17:33.808Z,10.61
2019-02-20T12:18:33.861Z,10.67
2019-02-20T12:19:33.782Z,10.65
2019-02-20T12:20:34.365Z,10.62
2019-02-20T12:21:33.760Z,10.67
2019-02-20T12:22:32.751Z,10.57
2019-02-20T12:23:36.749Z,10.61
2019-02-20T12:24:33.770Z,10.67
2019-02-20T12:25:33.717Z,10.61
2019-02-20T12:26:35.288Z,10.65
2019-02-20T12:27:33.727Z,10.62
2019-02-20T12:28:33.683Z,10.69
2019-02-20T12:29:33.677Z,10.59
2019-02-20T12:30:33.659Z,10.58
2019-02-20T12:31:33.687Z,10.61
2019-02-20T12:32:36.377Z,10.61
2019-02-20T12:33:33.631Z,10.64
2019-02-20T12:34:33.611Z,10.68
2019-02-20T12:35:33.599Z,10.67
2019-02-20T12:36:33.592Z,10.72
2019-02-20T12:37:33.583Z,10.86
2019-02-20T12:38:33.595Z,10.95
2019-02-20T12:39:33.585Z,10.97
2019-02-20T12:40:33.570Z,11.08
2019-02-20T12:41:32.541Z,11.08
2019-02-20T12:42:33.526Z,11.07
2019-02-20T12:43:36.381Z,11.07
2019-02-20T12:44:33.676Z,11.07
2019-02-20T12:45:33.508Z,11.01
2019-02-20T12:46:34.416Z,10.98
2019-02-20T12:47:33.473Z,10.94
2019-02-20T12:48:33.465Z,11.00
2019-02-20T12:49:33.492Z,10.97
2019-02-20T12:50:33.437Z,10.97
2019-02-20T12:51:33.439Z,11.04
2019-02-20T12:52:32.497Z,11.01
2019-02-20T12:53:33.400Z,11.02
2019-02-20T12:54:32.389Z,11.08
2019-02-20T12:55:32.442Z,11.18
2019-02-20T12:56:33.366Z,11.15
2019-02-20T12:58:32.350Z,11.18
2019-02-20T12:59:32.348Z,11.10
2019-02-20T13:00:33.385Z,11.08
2019-02-20T13:01:33.324Z,10.98
2019-02-20T13:02:33.327Z,11.07
2019-02-20T13:03:33.297Z,11.10
2019-02-20T13:04:33.291Z,11.04
2019-02-20T13:05:33.296Z,11.19
2019-02-20T13:06:33.258Z,11.10
2019-02-20T13:07:33.302Z,11.26
2019-02-20T13:08:33.237Z,11.25
2019-02-20T13:09:33.228Z,11.20
2019-02-20T13:10:32.254Z,11.31
2019-02-20T13:11:33.254Z,11.25
2019-02-20T13:12:33.302Z,11.12
2019-02-20T13:13:33.191Z,11.22
2019-02-20T13:14:33.173Z,11.10
2019-02-20T13:15:33.200Z,11.23
2019-02-20T13:16:33.156Z,11.30
2019-02-20T13:17:32.141Z,11.26
2019-02-20T13:18:33.133Z,11.26
2019-02-20T13:19:33.133Z,11.23
2019-02-20T13:20:33.103Z,11.26
2019-02-20T13:21:33.141Z,11.26
2019-02-20T13:22:33.118Z,11.19
2019-02-20T13:23:33.069Z,11.20
2019-02-20T13:24:33.063Z,11.27
2019-02-20T13:25:33.043Z,11.23
2019-02-20T13:26:33.084Z,11.31
2019-02-20T13:27:32.029Z,11.30
2019-02-20T13:28:33.045Z,11.26
2019-02-20T13:29:33.002Z,11.27
2019-02-20T13:30:33.015Z,11.30